createdAt,value
2023-03-06T00:01:29.896Z,36.40
2023-03-06T00:06:33.952Z,50.30
2023-03-06T00:11:37.636Z,51.60
2023-03-06T00:16:41.192Z,46.30
2023-03-06T00:21:44.328Z,47.80
2023-03-06T00:26:48.743Z,45.50
2023-03-06T00:31:52.416Z,41.40
2023-03-06T00:36:55.436Z,37.80
2023-03-06T00:41:58.042Z,34.50
2023-03-06T00:47:01.607Z,46.80
2023-03-06T00:52:05.225Z,42.60
2023-03-06T00:57:08.019Z,36.20
2023-03-06T01:02:11.133Z,42.70
2023-03-06T01:07:15.659Z,38.00
2023-03-06T01:12:18.929Z,35.40
2023-03-06T01:17:21.727Z,29.10
2023-03-06T01:22:25.476Z,33.80
2023-03-06T01:27:28.864Z,30.90
2023-03-06T01:32:33.240Z,38.90
2023-03-06T01:37:37.532Z,30.00
2023-03-06T01:42:41.737Z,32.60
2023-03-06T01:47:45.212Z,40.10
2023-03-06T01:52:57.688Z,31.50
2023-03-06T01:58:06.260Z,34.60
2023-03-06T02:03:10.767Z,31.90
2023-03-06T02:08:18.410Z,29.00
2023-03-06T02:13:21.513Z,28.80
2023-03-06T02:18:25.657Z,21.10
2023-03-06T02:23:39.144Z,31.30
2023-03-06T02:28:41.573Z,24.60
2023-03-06T02:33:43.891Z,26.30
2023-03-06T02:38:49.995Z,25.40
2023-03-06T02:43:53.303Z,28.30
2023-03-06T02:48:57.738Z,16.50
2023-03-06T02:54:00.135Z,15.90
2023-03-06T02:59:02.561Z,25.50
2023-03-06T03:04:05.891Z,25.40
2023-03-06T03:09:10.123Z,24.50
2023-03-06T03:14:12.934Z,15.90
2023-03-06T03:19:15.731Z,24.90
2023-03-06T03:24:19.281Z,21.70
2023-03-06T03:29:21.628Z,21.20
2023-03-06T03:34:23.743Z,27.90
2023-03-06T03:39:25.785Z,17.70
2023-03-06T03:44:27.602Z,21.90
2023-03-06T03:49:29.375Z,23.40
2023-03-06T03:54:31.124Z,27.00
2023-03-06T03:59:36.311Z,21.50
2023-03-06T04:04:39.771Z,28.60
2023-03-06T04:09:43.394Z,25.50
2023-03-06T04:14:46.567Z,17.50
2023-03-06T04:19:50.020Z,19.80
2023-03-06T04:24:53.196Z,19.60
2023-03-06T04:29:56.566Z,16.60
2023-03-06T04:35:00.539Z,19.90
2023-03-06T04:40:04.550Z,22.40
2023-03-06T04:45:08.492Z,26.80
2023-03-06T04:50:11.943Z,32.40
2023-03-06T04:55:17.705Z,34.90
2023-03-06T05:00:23.853Z,34.90
2023-03-06T05:05:28.246Z,25.10
2023-03-06T05:10:30.970Z,20.50
2023-03-06T05:15:33.641Z,33.30
2023-03-06T05:20:37.364Z,31.60
2023-03-06T05:25:41.136Z,27.90
2023-03-06T05:30:45.027Z,23.90
2023-03-06T05:35:49.073Z,25.90
2023-03-06T05:40:51.519Z,36.00
2023-03-06T05:46:05.503Z,36.80
2023-03-06T05:51:07.681Z,38.40
2023-03-06T05:56:10.377Z,28.40
2023-03-06T06:01:17.164Z,30.70
2023-03-06T06:06:20.441Z,37.40
2023-03-06T06:11:24.559Z,32.40
2023-03-06T06:16:27.876Z,29.30
2023-03-06T06:21:31.655Z,35.50
2023-03-06T06:26:35.826Z,39.70
2023-03-06T06:31:39.679Z,40.40
2023-03-06T06:36:43.257Z,39.50
2023-03-06T06:41:59.778Z,28.10
2023-03-06T06:47:26.102Z,45.70
2023-03-06T06:52:29.847Z,46.70
2023-03-06T06:57:33.852Z,42.60
2023-03-06T07:02:36.794Z,36.10
2023-03-06T07:07:41.307Z,48.20
2023-03-06T07:12:44.704Z,38.30
2023-03-06T07:17:50.189Z,39.50
2023-03-06T07:22:54.681Z,52.00
2023-03-06T07:27:58.534Z,49.50
2023-03-06T07:33:01.922Z,39.00
2023-03-06T07:38:04.602Z,49.40
2023-03-06T07:43:18.754Z,48.70
2023-03-06T07:48:23.558Z,26.90
2023-03-06T07:53:27.825Z,38.30
2023-03-06T07:58:32.821Z,21.20
2023-03-06T08:03:37.077Z,28.60
2023-03-06T08:08:41.724Z,22.70
2023-03-06T08:13:45.892Z,23.10
2023-03-06T08:18:49.587Z,33.20
2023-03-06T08:23:53.035Z,30.60
2023-03-06T08:28:59.798Z,26.20
2023-03-06T08:34:05.549Z,26.70
2023-03-06T08:39:09.120Z,23.30
2023-03-06T08:44:13.360Z,21.20
2023-03-06T08:49:16.651Z,25.10
2023-03-06T08:54:20.378Z,18.40
2023-03-06T08:59:24.784Z,14.30
2023-03-06T09:04:31.206Z,19.80
2023-03-06T09:09:33.391Z,16.40
2023-03-06T09:14:36.156Z,24.70
2023-03-06T09:19:39.458Z,16.50
2023-03-06T09:24:42.612Z,17.30
2023-03-06T09:29:45.871Z,21.00
2023-03-06T09:34:49.273Z,18.80
2023-03-06T09:39:51.805Z,14.30
2023-03-06T09:44:59.501Z,16.40
2023-03-06T09:50:14.386Z,15.20
2023-03-06T09:55:21.680Z,18.70
2023-03-06T10:00:38.532Z,20.70
2023-03-06T10:06:09.724Z,20.00
2023-03-06T10:11:17.540Z,21.90
2023-03-06T10:16:24.496Z,19.40
2023-03-06T10:27:10.855Z,18.60
2023-03-06T10:32:49.314Z,15.60
2023-03-06T10:38:01.849Z,16.20
2023-03-06T10:43:14.077Z,12.30
2023-03-06T10:48:22.891Z,11.50
2023-03-06T10:53:30.039Z,12.00
2023-03-06T10:58:32.938Z,14.10
2023-03-06T11:03:37.052Z,13.80
2023-03-06T11:08:42.789Z,13.20
2023-03-06T11:13:57.041Z,11.90
2023-03-06T11:19:04.412Z,10.30
2023-03-06T11:24:19.518Z,11.30
2023-03-06T11:29:43.530Z,11.90
2023-03-06T11:35:12.907Z,14.00
2023-03-06T11:40:31.587Z,14.70
2023-03-06T11:45:44.167Z,17.50
2023-03-06T11:50:53.474Z,19.10
2023-03-06T11:56:23.282Z,13.70
2023-03-06T12:01:45.112Z,12.30
2023-03-06T12:06:55.148Z,9.20
2023-03-06T12:12:03.787Z,17.10
2023-03-06T12:17:27.378Z,14.20
2023-03-06T12:22:57.611Z,9.80
2023-03-06T12:28:19.895Z,16.80
2023-03-06T12:33:34.270Z,13.30
2023-03-06T12:38:58.031Z,10.20
2023-03-06T12:44:06.354Z,11.60
2023-03-06T12:49:31.918Z,13.10
2023-03-06T12:54:40.133Z,13.50
2023-03-06T12:59:47.388Z,9.30
2023-03-06T13:05:08.961Z,10.80
2023-03-06T13:10:25.833Z,11.30
2023-03-06T13:15:45.309Z,9.90
2023-03-06T13:20:55.452Z,11.20
2023-03-06T13:26:08.234Z,8.10
2023-03-06T13:31:27.689Z,8.60
2023-03-06T13:36:39.839Z,12.00
2023-03-06T13:42:00.593Z,14.30
2023-03-06T13:47:20.955Z,12.50
2023-03-06T13:53:11.715Z,14.60
2023-03-06T13:58:37.403Z,13.80
2023-03-06T14:03:48.863Z,16.00
2023-03-06T14:08:52.985Z,13.70
2023-03-06T14:13:59.198Z,16.60
2023-03-06T14:19:03.329Z,15.10
2023-03-06T14:24:07.226Z,15.30
2023-03-06T14:29:25.901Z,28.70
2023-03-06T14:34:33.258Z,13.30
2023-03-06T14:39:42.687Z,15.60
2023-03-06T14:44:47.535Z,15.50
2023-03-06T14:50:26.999Z,14.80
2023-03-06T14:55:32.486Z,19.80
2023-03-06T15:00:41.358Z,19.80
2023-03-06T15:05:47.996Z,19.40
2023-03-06T15:11:02.762Z,17.60
2023-03-06T15:16:28.998Z,17.00
2023-03-06T15:21:38.999Z,17.80
2023-03-06T15:26:40.997Z,17.50
2023-03-06T15:31:48.335Z,17.40
2023-03-06T15:36:56.476Z,14.60
2023-03-06T15:47:08.863Z,17.00
2023-03-06T15:52:13.663Z,16.40
2023-03-06T15:57:24.458Z,22.00
2023-03-06T16:02:30.352Z,22.30
2023-03-06T16:07:35.524Z,18.60
2023-03-06T16:12:47.440Z,18.60
2023-03-06T16:17:57.961Z,24.80
2023-03-06T16:23:01.375Z,19.00
2023-03-06T16:28:11.741Z,22.20
2023-03-06T16:33:18.438Z,17.60
2023-03-06T16:38:27.884Z,18.30
2023-03-06T16:43:40.784Z,18.90
2023-03-06T16:48:49.180Z,23.90
2023-03-06T16:53:55.795Z,19.30
2023-03-06T16:58:59.566Z,18.80
2023-03-06T17:04:03.545Z,22.50
2023-03-06T17:09:07.655Z,22.00
2023-03-06T17:14:12.070Z,23.10
2023-03-06T17:19:15.304Z,18.40
2023-03-06T17:24:20.222Z,20.30
2023-03-06T17:29:23.624Z,24.80
2023-03-06T17:34:27.870Z,17.50
2023-03-06T17:39:39.401Z,37.40
2023-03-06T17:44:42.213Z,91.30
2023-03-06T17:49:46.635Z,39.70
2023-03-06T17:54:50.418Z,22.80
2023-03-06T17:59:53.826Z,20.80
2023-03-06T18:04:57.803Z,29.60
2023-03-06T18:10:02.157Z,22.60
2023-03-06T18:15:05.805Z,24.90
2023-03-06T18:20:10.183Z,26.80
2023-03-06T18:25:13.995Z,23.10
2023-03-06T18:30:18.324Z,24.50
2023-03-06T18:35:21.598Z,27.90
2023-03-06T18:40:25.748Z,33.10
2023-03-06T18:45:28.608Z,31.10
2023-03-06T18:50:32.120Z,32.20
2023-03-06T18:55:34.903Z,23.40
2023-03-06T19:00:38.915Z,32.50
2023-03-06T19:05:43.800Z,32.40
2023-03-06T19:10:54.690Z,37.60
2023-03-06T19:15:58.806Z,30.70
2023-03-06T19:21:13.254Z,33.30
2023-03-06T19:26:18.742Z,14.20
2023-03-06T19:31:25.375Z,14.40
2023-03-06T19:36:34.152Z,10.60
2023-03-06T19:41:38.128Z,7.60
2023-03-06T19:46:41.673Z,9.90
2023-03-06T19:51:45.724Z,10.50
2023-03-06T19:56:49.959Z,14.00
2023-03-06T20:01:58.052Z,16.70
2023-03-06T20:07:02.040Z,11.30
2023-03-06T20:12:09.599Z,13.10
2023-03-06T20:17:12.416Z,15.00
2023-03-06T20:22:15.617Z,15.20
2023-03-06T20:27:19.175Z,16.90
2023-03-06T20:32:22.752Z,15.50
2023-03-06T20:37:42.763Z,19.70
2023-03-06T20:42:46.732Z,13.50
2023-03-06T20:47:50.336Z,20.20
2023-03-06T20:52:54.636Z,16.30
2023-03-06T20:58:00.837Z,14.10
2023-03-06T21:03:04.139Z,13.30
2023-03-06T21:08:08.004Z,16.40
2023-03-06T21:13:11.876Z,19.10
2023-03-06T21:18:15.961Z,19.10
2023-03-06T21:23:19.292Z,19.00
2023-03-06T21:28:22.321Z,16.10
2023-03-06T21:33:26.378Z,13.80
2023-03-06T21:38:29.590Z,14.70
2023-03-06T21:43:31.832Z,12.20
2023-03-06T21:48:36.127Z,13.40
2023-03-06T21:53:43.284Z,19.00
2023-03-06T21:58:46.850Z,16.00
2023-03-06T22:03:50.601Z,13.80
2023-03-06T22:08:55.763Z,11.90
2023-03-06T22:14:00.306Z,18.40
2023-03-06T22:19:04.000Z,17.70
2023-03-06T22:24:08.872Z,17.50
2023-03-06T22:29:11.197Z,15.10
2023-03-06T22:34:14.609Z,17.80
2023-03-06T22:39:19.378Z,16.30
2023-03-06T22:44:22.628Z,24.10
2023-03-06T22:49:25.871Z,17.70
2023-03-06T22:54:29.675Z,23.10
2023-03-06T22:59:32.864Z,21.60
2023-03-06T23:04:36.654Z,21.80
2023-03-06T23:09:40.053Z,21.60
2023-03-06T23:14:49.966Z,21.80
2023-03-06T23:19:54.287Z,25.90
2023-03-06T23:24:56.289Z,25.80
2023-03-06T23:29:59.371Z,25.60
2023-03-06T23:35:01.852Z,25.40
2023-03-06T23:40:07.968Z,24.80
2023-03-06T23:45:11.435Z,24.40
2023-03-06T23:50:15.804Z,25.50
2023-03-06T23:55:18.124Z,20.70
